createdAt,value
2023-05-14T00:00:31.350Z,9.60
2023-05-14T00:05:32.791Z,9.10
2023-05-14T00:10:34.520Z,9.15
2023-05-14T00:15:36.121Z,9.32
2023-05-14T00:20:37.871Z,8.60
2023-05-14T00:25:39.320Z,8.90
2023-05-14T00:30:40.831Z,7.82
2023-05-14T00:35:42.259Z,8.38
2023-05-14T00:40:45.790Z,7.95
2023-05-14T00:45:53.799Z,8.88
2023-05-14T00:50:55.429Z,9.13
2023-05-14T00:55:58.593Z,8.43
2023-05-14T01:01:00.115Z,9.27
2023-05-14T01:06:15.524Z,9.50
2023-05-14T01:11:29.193Z,9.60
2023-05-14T01:16:33.358Z,10.02
2023-05-14T01:21:40.945Z,9.80
2023-05-14T01:26:42.459Z,9.85
2023-05-14T01:31:46.541Z,9.45
2023-05-14T01:36:50.202Z,9.00
2023-05-14T01:41:52.685Z,9.30
2023-05-14T01:46:54.162Z,9.40
2023-05-14T01:51:55.661Z,9.13
2023-05-14T01:56:57.130Z,8.93
2023-05-14T02:01:58.808Z,8.88
2023-05-14T02:07:00.487Z,8.80
2023-05-14T02:12:01.972Z,8.98
2023-05-14T02:17:03.691Z,8.93
2023-05-14T02:22:05.371Z,9.70
2023-05-14T02:27:06.808Z,9.20
2023-05-14T02:32:08.307Z,9.05
2023-05-14T02:37:09.816Z,8.75
2023-05-14T02:42:11.292Z,7.85
2023-05-14T02:47:12.805Z,8.73
2023-05-14T02:52:14.261Z,8.52
2023-05-14T02:57:15.685Z,8.18
2023-05-14T03:02:17.311Z,8.48
2023-05-14T03:07:19.262Z,8.05
2023-05-14T03:12:21.104Z,8.88
2023-05-14T03:17:23.005Z,8.93
2023-05-14T03:22:24.468Z,8.75
2023-05-14T03:27:25.866Z,8.75
2023-05-14T03:32:27.465Z,8.95
2023-05-14T03:37:28.956Z,9.35
2023-05-14T03:42:30.479Z,8.52
2023-05-14T03:47:31.938Z,9.80
2023-05-14T03:52:33.382Z,9.55
2023-05-14T03:57:34.824Z,9.45
2023-05-14T04:02:36.371Z,9.00
2023-05-14T04:07:37.869Z,8.95
2023-05-14T04:12:39.321Z,8.82
2023-05-14T04:17:41.199Z,9.13
2023-05-14T04:22:42.672Z,9.38
2023-05-14T04:27:44.121Z,9.10
2023-05-14T04:32:45.594Z,8.95
2023-05-14T04:37:47.274Z,8.73
2023-05-14T04:42:48.671Z,8.40
2023-05-14T04:47:50.101Z,8.45
2023-05-14T04:52:51.546Z,8.60
2023-05-14T04:57:53.029Z,8.48
2023-05-14T05:02:54.600Z,8.18
2023-05-14T05:07:56.147Z,8.43
2023-05-14T05:12:58.646Z,8.70
2023-05-14T05:18:00.581Z,8.63
2023-05-14T05:23:02.073Z,9.05
2023-05-14T05:28:03.646Z,9.68
2023-05-14T05:33:05.287Z,8.50
2023-05-14T05:38:07.378Z,8.30
2023-05-14T05:43:08.800Z,9.43
2023-05-14T05:48:10.284Z,7.88
2023-05-14T05:53:12.463Z,9.23
2023-05-14T05:58:15.784Z,8.80
2023-05-14T06:03:17.283Z,9.68
2023-05-14T06:08:18.931Z,8.73
2023-05-14T06:13:20.424Z,9.15
2023-05-14T06:18:21.879Z,9.85
2023-05-14T06:23:23.359Z,10.20
2023-05-14T06:28:24.793Z,9.77
2023-05-14T06:33:30.829Z,9.68
2023-05-14T06:38:32.822Z,10.00
2023-05-14T06:43:34.229Z,10.43
2023-05-14T06:48:36.460Z,9.18
2023-05-14T06:53:37.961Z,7.93
2023-05-14T06:58:39.377Z,7.68
2023-05-14T07:03:40.901Z,7.45
2023-05-14T07:08:45.973Z,6.05
2023-05-14T07:13:47.473Z,6.13
2023-05-14T07:18:49.003Z,4.65
2023-05-14T07:23:51.035Z,5.32
2023-05-14T07:28:52.641Z,5.50
2023-05-14T07:33:54.056Z,4.75
2023-05-14T07:38:56.115Z,5.00
2023-05-14T07:43:57.601Z,4.00
2023-05-14T07:48:59.028Z,3.67
2023-05-14T07:54:01.007Z,3.70
2023-05-14T07:59:02.415Z,4.35
2023-05-14T08:04:03.958Z,3.88
2023-05-14T08:09:05.487Z,3.13
2023-05-14T08:14:06.920Z,3.45
2023-05-14T08:19:08.500Z,2.30
2023-05-14T08:24:09.998Z,1.88
2023-05-14T08:29:12.841Z,2.38
2023-05-14T08:34:15.746Z,2.15
2023-05-14T08:39:17.192Z,1.73
2023-05-14T08:44:20.564Z,2.20
2023-05-14T08:49:44.920Z,3.80
2023-05-14T08:54:48.151Z,2.65
2023-05-14T08:59:49.593Z,2.70
2023-05-14T09:05:01.550Z,2.45
2023-05-14T09:10:04.022Z,2.55
2023-05-14T09:15:06.559Z,2.50
2023-05-14T09:20:09.624Z,3.42
2023-05-14T09:25:14.690Z,2.88
2023-05-14T09:30:16.272Z,2.92
2023-05-14T09:35:20.779Z,2.70
2023-05-14T09:40:24.328Z,2.90
2023-05-14T09:45:26.337Z,2.63
2023-05-14T09:50:27.761Z,2.20
2023-05-14T09:55:29.403Z,2.70
2023-05-14T10:00:32.934Z,2.38
2023-05-14T10:05:36.554Z,2.28
2023-05-14T10:10:38.643Z,2.50
2023-05-14T10:15:43.630Z,2.20
2023-05-14T10:20:53.285Z,2.22
2023-05-14T10:25:54.868Z,2.15
2023-05-14T10:30:56.459Z,2.40
2023-05-14T10:36:04.469Z,2.63
2023-05-14T10:41:10.883Z,2.40
2023-05-14T10:46:14.078Z,2.38
2023-05-14T10:51:17.466Z,2.90
2023-05-14T10:56:19.486Z,2.38
2023-05-14T11:01:24.108Z,2.47
2023-05-14T11:06:26.811Z,2.28
2023-05-14T11:11:28.340Z,2.40
2023-05-14T11:16:31.267Z,2.38
2023-05-14T11:21:32.959Z,3.35
2023-05-14T11:26:35.822Z,2.65
2023-05-14T11:31:37.365Z,2.88
2023-05-14T11:36:38.985Z,3.00
2023-05-14T11:41:45.125Z,2.10
2023-05-14T11:46:56.657Z,2.38
2023-05-14T11:51:59.367Z,2.58
2023-05-14T11:57:07.858Z,3.00
2023-05-14T12:07:16.457Z,3.00
2023-05-14T12:12:20.415Z,3.08
2023-05-14T12:17:23.209Z,3.85
2023-05-14T12:22:24.736Z,3.10
2023-05-14T12:27:27.730Z,3.10
2023-05-14T12:32:32.188Z,3.47
2023-05-14T12:37:34.160Z,3.33
2023-05-14T12:42:35.942Z,3.70
2023-05-14T12:47:37.752Z,3.78
2023-05-14T12:52:40.080Z,3.58
2023-05-14T12:57:41.855Z,3.33
2023-05-14T13:02:44.060Z,3.20
2023-05-14T13:07:45.803Z,3.30
2023-05-14T13:12:47.286Z,3.53
2023-05-14T13:17:49.046Z,3.72
2023-05-14T13:22:50.665Z,4.15
2023-05-14T13:27:52.110Z,5.30
2023-05-14T13:32:53.532Z,4.82
2023-05-14T13:37:55.002Z,4.57
2023-05-14T13:42:56.485Z,7.15
2023-05-14T13:47:57.993Z,4.78
2023-05-14T13:52:59.537Z,4.80
2023-05-14T13:58:02.360Z,5.93
2023-05-14T14:03:03.943Z,5.97
2023-05-14T14:08:22.046Z,5.10
2023-05-14T14:13:25.147Z,5.30
2023-05-14T14:18:26.805Z,5.97
2023-05-14T14:23:28.344Z,6.22
2023-05-14T14:28:29.919Z,5.82
2023-05-14T14:33:31.417Z,5.93
2023-05-14T14:38:33.021Z,6.13
2023-05-14T14:43:34.608Z,6.47
2023-05-14T14:48:39.873Z,5.57
2023-05-14T14:53:41.415Z,5.53
2023-05-14T14:58:42.921Z,5.43
2023-05-14T15:03:45.644Z,5.53
2023-05-14T15:08:47.338Z,6.15
2023-05-14T15:13:48.920Z,5.22
2023-05-14T15:18:50.546Z,5.90
2023-05-14T15:23:52.400Z,6.13
2023-05-14T15:28:54.036Z,5.68
2023-05-14T15:33:56.121Z,5.20
2023-05-14T15:38:57.862Z,5.13
2023-05-14T15:43:59.356Z,4.88
2023-05-14T15:49:00.799Z,5.47
2023-05-14T15:54:02.338Z,6.00
2023-05-14T15:59:03.792Z,5.75
2023-05-14T16:04:05.414Z,6.10
2023-05-14T16:09:07.047Z,5.80
2023-05-14T16:14:08.445Z,6.00
2023-05-14T16:19:10.061Z,6.85
2023-05-14T16:24:12.754Z,6.80
2023-05-14T16:29:14.256Z,6.60
2023-05-14T16:34:16.186Z,7.30
2023-05-14T16:39:19.813Z,7.20
2023-05-14T16:44:21.360Z,6.85
2023-05-14T16:49:22.853Z,7.15
2023-05-14T16:54:24.256Z,7.47
2023-05-14T16:59:27.178Z,7.80
2023-05-14T17:04:28.764Z,7.60
2023-05-14T17:09:31.436Z,8.10
2023-05-14T17:14:32.888Z,7.07
2023-05-14T17:19:34.354Z,7.20
2023-05-14T17:24:36.572Z,7.57
2023-05-14T17:29:38.109Z,7.22
2023-05-14T17:34:39.560Z,7.65
2023-05-14T17:39:40.982Z,8.10
2023-05-14T17:44:42.440Z,7.00
2023-05-14T17:49:43.895Z,7.70
2023-05-14T17:54:45.472Z,7.90
2023-05-14T17:59:46.897Z,8.52
2023-05-14T18:04:48.366Z,8.00
2023-05-14T18:09:49.890Z,7.93
2023-05-14T18:14:51.724Z,8.95
2023-05-14T18:19:53.232Z,9.32
2023-05-14T18:24:54.695Z,8.73
2023-05-14T18:29:56.171Z,8.98
2023-05-14T18:34:57.620Z,7.65
2023-05-14T18:39:59.065Z,8.07
2023-05-14T18:45:00.665Z,9.23
2023-05-14T18:50:03.008Z,8.20
2023-05-14T18:55:04.874Z,8.82
2023-05-14T19:00:07.226Z,7.72
2023-05-14T19:05:08.938Z,7.32
2023-05-14T19:10:10.894Z,8.65
2023-05-14T19:15:12.446Z,8.40
2023-05-14T19:20:14.014Z,9.15
2023-05-14T19:25:15.519Z,8.80
2023-05-14T19:30:17.781Z,9.20
2023-05-14T19:35:19.686Z,9.40
2023-05-14T19:40:21.105Z,9.55
2023-05-14T19:45:22.625Z,9.65
2023-05-14T19:50:24.182Z,10.40
2023-05-14T19:55:26.035Z,10.30
2023-05-14T20:00:27.981Z,9.45
2023-05-14T20:05:29.691Z,9.27
2023-05-14T20:10:31.192Z,9.27
2023-05-14T20:15:32.635Z,9.82
2023-05-14T20:20:34.219Z,10.20
2023-05-14T20:25:35.712Z,11.38
2023-05-14T20:30:37.351Z,11.25
2023-05-14T20:35:40.766Z,12.25
2023-05-14T20:40:42.220Z,12.35
2023-05-14T20:45:43.721Z,11.68
2023-05-14T20:50:45.125Z,12.55
2023-05-14T20:55:46.601Z,11.13
2023-05-14T21:00:48.065Z,10.63
2023-05-14T21:05:49.534Z,10.65
2023-05-14T21:10:50.969Z,10.00
2023-05-14T21:15:52.527Z,10.30
2023-05-14T21:20:53.959Z,9.55
2023-05-14T21:25:55.632Z,10.15
2023-05-14T21:30:57.192Z,8.55
2023-05-14T21:35:58.877Z,8.90
2023-05-14T21:41:00.674Z,9.73
2023-05-14T21:46:02.202Z,9.93
2023-05-14T21:51:03.844Z,10.18
2023-05-14T21:56:06.077Z,11.80
2023-05-14T22:01:09.045Z,11.48
2023-05-14T22:06:10.611Z,10.05
2023-05-14T22:11:12.085Z,10.25
2023-05-14T22:16:14.299Z,10.60
2023-05-14T22:21:15.974Z,10.95
2023-05-14T22:26:17.460Z,11.13
2023-05-14T22:31:18.974Z,10.82
2023-05-14T22:36:20.526Z,10.85
2023-05-14T22:41:22.120Z,11.20
2023-05-14T22:46:23.693Z,12.10
2023-05-14T22:51:25.520Z,11.38
2023-05-14T22:56:27.796Z,19.02
2023-05-14T23:01:30.091Z,14.70
2023-05-14T23:06:31.875Z,12.40
2023-05-14T23:11:33.347Z,12.18
2023-05-14T23:16:35.143Z,12.30
2023-05-14T23:21:36.548Z,12.45
2023-05-14T23:26:38.240Z,12.40
2023-05-14T23:31:41.028Z,12.75
2023-05-14T23:36:42.703Z,12.85
2023-05-14T23:41:44.206Z,13.32
2023-05-14T23:46:45.733Z,11.40
2023-05-14T23:51:47.216Z,8.65
2023-05-14T23:56:48.759Z,7.93
